Time;durP1;ratioP1;P1;durP2;ratioP2;P2;SDS_P1;SDS_P2;PMS_P1;PMS_P2;Temp;Humidity;BMP_temperature;BMP_pressure;BME280_temperature;BME280_humidity;BME280_pressure;Samples;Min_cycle;Max_cycle;Signal;HPM_P1;HPM_P2
2024/04/21 00:00:32;;;;;;;2.90;2.70;;;6.70;99.90;;;;;;5341606;26;20493;-66
2024/04/21 00:03:01;;;;;;;3.27;2.97;;;6.70;99.90;;;;;;5340827;26;20548;-66
2024/04/21 00:05:32;;;;;;;3.50;3.17;;;6.70;99.90;;;;;;5339395;26;20486;-68
2024/04/21 00:08:01;;;;;;;3.27;2.97;;;6.70;99.90;;;;;;5339887;26;20541;-66
2024/04/21 00:10:29;;;;;;;3.23;2.93;;;6.60;99.90;;;;;;5351687;26;20536;-66
2024/04/21 00:12:59;;;;;;;3.37;3.07;;;6.60;99.90;;;;;;5342044;26;20484;-66
2024/04/21 00:15:26;;;;;;;3.40;3.10;;;6.60;99.90;;;;;;5356749;26;21689;-67
2024/04/21 00:17:56;;;;;;;4.00;3.70;;;6.60;99.90;;;;;;5346321;26;20824;-67
2024/04/21 00:20:23;;;;;;;3.17;2.87;;;6.60;99.90;;;;;;5345140;26;20480;-66
2024/04/21 00:22:55;;;;;;;3.50;3.20;;;6.50;99.90;;;;;;5336903;26;20490;-67
2024/04/21 00:25:22;;;;;;;3.67;3.37;;;6.50;99.90;;;;;;5357376;26;20472;-66
2024/04/21 00:27:52;;;;;;;3.57;3.27;;;6.50;99.90;;;;;;5343163;26;20477;-67
2024/04/21 00:30:19;;;;;;;3.50;3.20;;;6.50;99.90;;;;;;5349438;26;20498;-66
2024/04/21 00:32:49;;;;;;;3.77;3.30;;;6.50;99.90;;;;;;5344567;26;20545;-67
2024/04/21 00:35:16;;;;;;;4.00;3.70;;;6.50;99.90;;;;;;5352857;26;20482;-66
2024/04/21 00:37:46;;;;;;;4.00;3.63;;;6.50;99.90;;;;;;5340613;26;20541;-66
2024/04/21 00:40:16;;;;;;;3.70;3.40;;;6.40;99.90;;;;;;5349804;26;20538;-67
2024/04/21 00:43:00;;;;;;;4.10;3.80;;;6.40;99.90;;;;;;5341034;26;20581;-67
2024/04/21 00:45:28;;;;;;;4.13;3.83;;;6.40;99.90;;;;;;5333949;26;20582;-67
2024/04/21 00:48:07;;;;;;;3.97;3.67;;;6.40;99.90;;;;;;5345437;26;20541;-66
2024/04/21 00:50:36;;;;;;;4.63;3.77;;;6.30;99.90;;;;;;5359787;26;20493;-66
2024/04/21 00:53:06;;;;;;;3.87;3.50;;;6.30;99.90;;;;;;5343686;26;20484;-66
2024/04/21 00:55:37;;;;;;;4.67;3.67;;;6.30;99.90;;;;;;5343551;26;21092;-67
2024/04/21 00:58:09;;;;;;;3.67;3.37;;;6.20;99.90;;;;;;5340400;26;20477;-66
2024/04/21 01:00:36;;;;;;;3.60;3.30;;;6.20;99.90;;;;;;5336907;26;21186;-66
2024/04/21 01:03:07;;;;;;;4.13;3.83;;;6.20;99.90;;;;;;5341576;26;20484;-66
2024/04/21 01:05:34;;;;;;;4.40;4.00;;;6.10;99.90;;;;;;5349104;26;20482;-66
2024/04/21 01:08:04;;;;;;;4.00;3.70;;;6.00;99.90;;;;;;5345230;26;21135;-66
2024/04/21 01:10:31;;;;;;;4.10;3.70;;;6.00;99.90;;;;;;5345554;26;20486;-66
2024/04/21 01:13:11;;;;;;;3.90;3.60;;;6.00;99.90;;;;;;5341957;26;20492;-66
2024/04/21 01:15:38;;;;;;;4.07;3.67;;;6.00;99.90;;;;;;5337869;26;20588;-67
2024/04/21 01:18:09;;;;;;;4.20;3.80;;;5.90;99.90;;;;;;5346645;26;20539;-67
2024/04/21 01:20:37;;;;;;;3.40;3.20;;;5.90;99.90;;;;;;5341073;26;20496;-65
2024/04/21 01:23:09;;;;;;;4.33;3.93;;;5.90;99.90;;;;;;5343655;26;20497;-67
2024/04/21 01:25:36;;;;;;;3.87;3.57;;;5.80;99.90;;;;;;5342058;26;20474;-66
2024/04/21 01:28:07;;;;;;;4.83;4.17;;;5.80;99.90;;;;;;5343896;26;20542;-67
2024/04/21 01:30:34;;;;;;;3.60;3.30;;;5.70;99.90;;;;;;5337905;26;20571;-66
2024/04/21 01:33:04;;;;;;;3.87;3.57;;;5.70;99.90;;;;;;5349017;26;20486;-66
2024/04/21 01:35:32;;;;;;;4.00;3.63;;;5.70;99.90;;;;;;5342130;26;20619;-66
2024/04/21 01:38:02;;;;;;;3.70;3.40;;;5.70;99.90;;;;;;5343985;26;20826;-66
2024/04/21 01:40:32;;;;;;;3.93;3.63;;;5.60;99.90;;;;;;5348276;26;21089;-67
2024/04/21 01:43:02;;;;;;;3.40;3.10;;;5.60;99.90;;;;;;5344820;26;20606;-67
2024/04/21 01:45:29;;;;;;;4.30;3.90;;;5.50;99.90;;;;;;5340233;26;20497;-66
2024/04/21 01:47:59;;;;;;;3.67;3.37;;;5.50;99.90;;;;;;5341608;26;21071;-66
2024/04/21 01:50:26;;;;;;;3.93;3.57;;;5.50;99.90;;;;;;5341370;26;21199;-66
2024/04/21 01:52:56;;;;;;;4.17;3.87;;;5.40;99.90;;;;;;5355221;26;20484;-66
2024/04/21 01:55:23;;;;;;;4.07;3.67;;;5.40;99.90;;;;;;5357928;26;20546;-66
2024/04/21 01:57:55;;;;;;;4.10;3.70;;;5.40;99.90;;;;;;5350911;26;20921;-66
2024/04/21 02:00:23;;;;;;;3.70;3.40;;;5.30;99.90;;;;;;5353252;26;20537;-66
2024/04/21 02:02:52;;;;;;;4.30;3.90;;;5.30;99.90;;;;;;5357819;26;20493;-66
2024/04/21 02:05:19;;;;;;;3.60;3.27;;;5.30;99.90;;;;;;5357992;26;21626;-66
2024/04/21 02:07:50;;;;;;;3.73;3.43;;;5.30;99.90;;;;;;5347937;26;20588;-66
2024/04/21 02:10:17;;;;;;;3.80;3.50;;;5.30;99.90;;;;;;5357776;26;21053;-67
2024/04/21 02:12:47;;;;;;;3.67;3.40;;;5.20;99.90;;;;;;5358642;26;21122;-67
2024/04/21 02:15:17;;;;;;;4.50;4.10;;;5.10;99.90;;;;;;5345458;26;20481;-67
2024/04/21 02:17:47;;;;;;;4.17;3.77;;;5.10;99.90;;;;;;5342529;26;20568;-66
2024/04/21 02:20:14;;;;;;;3.97;3.60;;;5.10;99.90;;;;;;5343344;26;20493;-67
2024/04/21 02:22:44;;;;;;;4.47;4.07;;;5.10;99.90;;;;;;5342597;26;20490;-67
2024/04/21 02:25:11;;;;;;;4.37;3.97;;;5.10;99.90;;;;;;5358896;26;20501;-66
2024/04/21 02:27:41;;;;;;;5.10;4.40;;;5.00;99.90;;;;;;5349706;26;21239;-66
2024/04/21 02:30:08;;;;;;;4.70;4.30;;;5.10;99.90;;;;;;5346724;26;20479;-66
2024/04/21 02:32:41;;;;;;;5.20;4.73;;;5.10;99.90;;;;;;5337467;26;21154;-66
2024/04/21 02:35:08;;;;;;;5.00;4.30;;;5.00;99.90;;;;;;5337016;26;20549;-67
2024/04/21 02:37:38;;;;;;;5.70;4.30;;;5.00;99.90;;;;;;5327132;26;20527;-66
2024/04/21 02:40:05;;;;;;;5.30;4.20;;;5.00;99.90;;;;;;5337795;26;20484;-66
2024/04/21 02:42:35;;;;;;;5.40;4.70;;;4.90;99.90;;;;;;5346161;26;20544;-67
2024/04/21 02:45:03;;;;;;;5.40;4.90;;;4.90;99.90;;;;;;5342053;26;20536;-66
2024/04/21 02:47:33;;;;;;;4.53;4.13;;;4.90;99.90;;;;;;5355301;26;20618;-66
2024/04/21 02:50:03;;;;;;;4.30;3.90;;;4.90;99.90;;;;;;5343453;26;20489;-66
2024/04/21 02:52:32;;;;;;;4.73;4.33;;;4.90;99.90;;;;;;5349181;26;21188;-66
2024/04/21 02:54:59;;;;;;;5.40;4.37;;;4.90;99.90;;;;;;5359496;26;20540;-66
2024/04/21 02:57:31;;;;;;;5.13;4.63;;;4.90;99.90;;;;;;5353764;26;20546;-67
2024/04/21 02:59:58;;;;;;;4.93;4.43;;;4.90;99.90;;;;;;5343487;26;20556;-66
2024/04/21 03:02:34;;;;;;;4.73;4.27;;;4.90;99.90;;;;;;5335437;26;20489;-66
2024/04/21 03:05:05;;;;;;;5.00;4.50;;;4.80;99.90;;;;;;5329325;26;20541;-67
2024/04/21 03:07:36;;;;;;;4.80;4.20;;;4.80;99.90;;;;;;5333676;26;20485;-66
2024/04/21 03:10:04;;;;;;;4.93;4.43;;;4.80;99.90;;;;;;5333005;26;20472;-66
2024/04/21 03:12:34;;;;;;;5.27;4.60;;;4.80;99.90;;;;;;5329043;26;20880;-67
2024/04/21 03:15:02;;;;;;;5.60;4.73;;;4.80;99.90;;;;;;5333595;26;20601;-66
2024/04/21 03:17:32;;;;;;;5.63;4.70;;;4.80;99.90;;;;;;5334222;26;20484;-67
2024/04/21 03:19:59;;;;;;;5.90;4.50;;;4.70;99.90;;;;;;5333886;26;21097;-66
2024/04/21 03:22:31;;;;;;;6.37;4.27;;;4.70;99.90;;;;;;5332484;26;20906;-66
2024/04/21 03:24:59;;;;;;;4.60;4.00;;;4.60;99.90;;;;;;5334788;26;20533;-66
2024/04/21 03:27:29;;;;;;;4.97;4.47;;;4.70;99.90;;;;;;5325930;26;20556;-66
2024/04/21 03:29:56;;;;;;;5.50;4.63;;;4.60;99.90;;;;;;5334062;26;20493;-66
2024/04/21 03:32:25;;;;;;;5.43;4.93;;;4.60;99.90;;;;;;5336998;26;20519;-66
2024/04/21 03:34:56;;;;;;;4.90;4.50;;;4.60;99.90;;;;;;5333642;26;20529;-66
2024/04/21 03:37:26;;;;;;;6.00;5.13;;;4.60;99.90;;;;;;5326189;26;20486;-67
2024/04/21 03:39:58;;;;;;;5.30;4.80;;;4.60;99.90;;;;;;5325623;26;20633;-66
2024/04/21 03:42:29;;;;;;;5.40;4.90;;;4.60;99.90;;;;;;5329183;26;20488;-66
2024/04/21 03:44:59;;;;;;;5.80;5.20;;;4.60;99.90;;;;;;5331973;26;20975;-66
2024/04/21 03:47:30;;;;;;;6.70;5.30;;;4.60;99.90;;;;;;5333537;26;20558;-67
2024/04/21 03:49:57;;;;;;;6.60;5.03;;;4.60;99.90;;;;;;5329358;26;20701;-67
2024/04/21 03:52:27;;;;;;;6.83;5.50;;;4.60;99.90;;;;;;5330530;26;20845;-66
2024/04/21 03:54:57;;;;;;;5.83;5.13;;;4.70;99.90;;;;;;5332167;26;20503;-66
2024/04/21 03:57:30;;;;;;;6.17;5.57;;;4.70;99.90;;;;;;5328187;26;20480;-66
2024/04/21 03:59:57;;;;;;;6.97;5.97;;;4.60;99.90;;;;;;5325990;26;20981;-66
2024/04/21 04:02:28;;;;;;;5.50;4.93;;;4.60;99.90;;;;;;5330146;26;20499;-67
2024/04/21 04:04:55;;;;;;;5.50;5.00;;;4.60;99.90;;;;;;5328161;26;20868;-66
2024/04/21 04:07:25;;;;;;;6.40;4.70;;;4.60;99.90;;;;;;5329782;26;21154;-66
2024/04/21 04:09:53;;;;;;;7.13;5.10;;;4.60;99.90;;;;;;5332219;26;20541;-69
2024/04/21 04:12:25;;;;;;;5.83;5.20;;;4.50;99.90;;;;;;5327254;26;20860;-66
2024/04/21 04:14:52;;;;;;;5.30;4.80;;;4.50;99.90;;;;;;5334276;26;20484;-66
2024/04/21 04:17:22;;;;;;;4.83;4.43;;;4.50;99.90;;;;;;5331760;26;20539;-67
2024/04/21 04:19:49;;;;;;;5.07;4.47;;;4.50;99.90;;;;;;5338207;26;20469;-67
2024/04/21 04:22:19;;;;;;;5.33;4.83;;;4.50;99.90;;;;;;5331465;26;20600;-67
2024/04/21 04:24:47;;;;;;;5.27;4.77;;;4.50;99.90;;;;;;5331511;26;21528;-66
2024/04/21 04:27:16;;;;;;;5.50;4.70;;;4.40;99.90;;;;;;5327846;26;20543;-66
2024/04/21 04:29:46;;;;;;;6.03;5.37;;;4.40;99.90;;;;;;5331393;26;20489;-66
2024/04/21 04:32:16;;;;;;;5.90;5.30;;;4.40;99.90;;;;;;5332214;26;20497;-66
2024/04/21 04:34:44;;;;;;;5.20;4.70;;;4.40;99.90;;;;;;5331546;26;20484;-66
2024/04/21 04:37:13;;;;;;;6.70;5.43;;;4.40;99.90;;;;;;5324409;26;20496;-66
2024/04/21 04:39:41;;;;;;;5.57;5.07;;;4.40;99.90;;;;;;5333000;26;20540;-66
2024/04/21 04:42:11;;;;;;;5.47;4.97;;;4.40;99.90;;;;;;5327328;26;20499;-66
2024/04/21 04:44:38;;;;;;;5.90;5.30;;;4.40;99.90;;;;;;5334496;26;21408;-66
2024/04/21 04:47:11;;;;;;;6.07;4.60;;;4.50;99.90;;;;;;5334029;26;20581;-66
2024/04/21 04:49:38;;;;;;;6.70;5.37;;;4.50;99.90;;;;;;5335698;26;20569;-66
2024/04/21 04:52:08;;;;;;;5.10;4.60;;;4.50;99.90;;;;;;5334378;26;20536;-67
2024/04/21 04:54:35;;;;;;;5.93;5.30;;;4.50;99.90;;;;;;5329792;26;20477;-67
2024/04/21 04:57:05;;;;;;;7.17;5.53;;;4.50;99.90;;;;;;5335071;26;20627;-67
2024/04/21 04:59:32;;;;;;;5.23;4.73;;;4.60;99.90;;;;;;5329004;26;20789;-66
2024/04/21 05:02:02;;;;;;;5.40;4.60;;;4.60;99.90;;;;;;5326209;26;21083;-67
2024/04/21 05:04:32;;;;;;;5.90;5.30;;;4.60;99.90;;;;;;5330788;26;20541;-66
2024/04/21 05:07:02;;;;;;;5.43;4.93;;;4.60;99.90;;;;;;5333875;26;21080;-66
2024/04/21 05:09:31;;;;;;;6.23;4.80;;;4.60;99.90;;;;;;5333251;26;20544;-69
2024/04/21 05:11:59;;;;;;;6.30;5.00;;;4.70;99.90;;;;;;5330773;26;20599;-67
2024/04/21 05:14:29;;;;;;;5.40;4.90;;;4.70;99.90;;;;;;5330311;26;20781;-66
2024/04/21 05:16:56;;;;;;;5.53;4.63;;;4.70;99.90;;;;;;5333041;26;20550;-66
2024/04/21 05:19:26;;;;;;;4.80;4.30;;;4.70;99.90;;;;;;5334512;26;20609;-66
2024/04/21 05:21:55;;;;;;;5.87;5.23;;;4.70;99.90;;;;;;5334405;26;20480;-66
2024/04/21 05:24:25;;;;;;;5.20;4.57;;;4.80;99.90;;;;;;5335150;26;20817;-66
2024/04/21 05:26:53;;;;;;;4.90;4.40;;;4.80;99.90;;;;;;5333191;26;20485;-67
2024/04/21 05:29:22;;;;;;;4.93;4.23;;;4.80;99.90;;;;;;5331986;26;20596;-66
2024/04/21 05:31:50;;;;;;;5.83;4.93;;;4.80;99.90;;;;;;5328777;26;20501;-66
2024/04/21 05:34:19;;;;;;;7.60;5.40;;;4.90;99.90;;;;;;5335056;26;20540;-67
2024/04/21 05:36:47;;;;;;;6.60;5.27;;;4.90;99.90;;;;;;5332083;26;20490;-67
2024/04/21 05:39:19;;;;;;;6.57;5.03;;;4.90;99.90;;;;;;5340521;26;20611;-66
2024/04/21 05:41:46;;;;;;;6.90;4.60;;;5.00;99.90;;;;;;5334981;26;20491;-66
2024/04/21 05:44:16;;;;;;;4.90;4.43;;;5.00;99.90;;;;;;5344064;26;20482;-66
2024/04/21 05:46:43;;;;;;;5.60;4.37;;;5.00;99.90;;;;;;5358062;26;20489;-67
2024/04/21 05:49:13;;;;;;;5.27;4.43;;;5.00;99.90;;;;;;5351760;26;20838;-66
2024/04/21 05:51:41;;;;;;;4.90;4.40;;;5.10;99.90;;;;;;5350455;26;20493;-66
2024/04/21 05:54:10;;;;;;;4.90;4.40;;;5.10;99.90;;;;;;5344639;26;20480;-66
2024/04/21 05:56:40;;;;;;;4.87;4.13;;;5.10;99.90;;;;;;5332599;26;20883;-66
2024/04/21 05:59:10;;;;;;;4.57;4.17;;;5.10;99.90;;;;;;5340056;26;20493;-66
2024/04/21 06:01:37;;;;;;;3.80;3.50;;;5.10;99.90;;;;;;5329038;26;20546;-66
2024/04/21 06:04:07;;;;;;;5.67;4.90;;;5.20;99.90;;;;;;5333239;26;20551;-66
2024/04/21 06:06:35;;;;;;;4.40;3.67;;;5.20;99.90;;;;;;5330357;26;20583;-66
2024/04/21 06:09:04;;;;;;;4.33;3.70;;;5.20;99.90;;;;;;5348688;26;21226;-67
2024/04/21 06:11:32;;;;;;;4.40;3.57;;;5.30;99.90;;;;;;5336235;26;21147;-67
2024/04/21 06:14:10;;;;;;;4.27;3.87;;;5.30;99.90;;;;;;5344354;26;20543;-67
2024/04/21 06:16:37;;;;;;;4.57;4.17;;;5.40;99.90;;;;;;5335277;26;20477;-67
2024/04/21 06:19:07;;;;;;;4.10;3.70;;;5.40;99.90;;;;;;5334943;26;20884;-67
2024/04/21 06:21:35;;;;;;;4.30;3.43;;;5.40;99.90;;;;;;5336730;26;20887;-67
2024/04/21 06:24:04;;;;;;;4.03;3.63;;;5.50;99.90;;;;;;5344933;26;20976;-67
2024/04/21 06:26:32;;;;;;;4.77;3.63;;;5.50;99.90;;;;;;5345524;26;20852;-67
2024/04/21 06:29:01;;;;;;;3.70;3.40;;;5.50;99.90;;;;;;5343773;26;20487;-67
2024/04/21 06:31:32;;;;;;;3.70;3.40;;;5.60;99.90;;;;;;5344498;26;20544;-67
2024/04/21 06:34:01;;;;;;;4.27;3.50;;;5.60;99.90;;;;;;5342056;26;20488;-67
2024/04/21 06:36:29;;;;;;;4.00;2.90;;;5.60;99.90;;;;;;5347222;26;20508;-67
2024/04/21 06:38:59;;;;;;;3.90;3.33;;;5.70;99.90;;;;;;5339920;26;20488;-66
2024/04/21 06:41:26;;;;;;;3.97;3.60;;;5.70;99.90;;;;;;5339944;26;20556;-67
2024/04/21 06:43:56;;;;;;;3.30;3.00;;;5.70;99.90;;;;;;5345644;26;20534;-67
2024/04/21 06:46:23;;;;;;;3.23;2.93;;;5.80;99.90;;;;;;5347541;26;20487;-67
2024/04/21 06:48:56;;;;;;;3.50;2.83;;;5.90;99.90;;;;;;5347323;26;20481;-66
2024/04/21 06:51:24;;;;;;;3.73;3.00;;;5.90;99.90;;;;;;5341833;26;20578;-66
2024/04/21 06:53:54;;;;;;;3.23;2.93;;;6.00;99.90;;;;;;5348349;26;20497;-66
2024/04/21 06:56:21;;;;;;;3.67;3.20;;;6.00;99.90;;;;;;5336315;26;20616;-66
2024/04/21 06:58:51;;;;;;;3.17;2.83;;;6.10;99.90;;;;;;5340638;26;20489;-66
2024/04/21 07:01:18;;;;;;;4.90;3.23;;;6.00;99.90;;;;;;5344507;26;20580;-67
2024/04/21 07:03:48;;;;;;;4.00;3.47;;;6.10;99.90;;;;;;5350385;26;20541;-66
2024/04/21 07:06:19;;;;;;;3.33;3.03;;;6.10;99.90;;;;;;5350670;26;20499;-66
2024/04/21 07:08:49;;;;;;;3.53;3.23;;;6.10;99.90;;;;;;5341689;26;21106;-67
2024/04/21 07:11:16;;;;;;;3.63;3.27;;;6.20;99.90;;;;;;5328348;26;21870;-68
2024/04/21 07:13:46;;;;;;;3.93;3.27;;;6.20;99.90;;;;;;5332582;26;20491;-67
2024/04/21 07:16:19;;;;;;;3.30;3.00;;;6.30;99.90;;;;;;5344694;26;20540;-66
2024/04/21 07:18:49;;;;;;;3.70;3.40;;;6.40;99.90;;;;;;5327614;26;20530;-65
2024/04/21 07:21:23;;;;;;;4.27;3.33;;;6.40;99.90;;;;;;5343301;26;20496;-66
2024/04/21 07:23:53;;;;;;;3.40;3.07;;;6.50;99.90;;;;;;5341492;26;20574;-66
2024/04/21 07:26:20;;;;;;;3.23;2.93;;;6.60;99.90;;;;;;5348289;26;20494;-65
2024/04/21 07:28:50;;;;;;;3.40;3.10;;;6.60;99.90;;;;;;5340943;26;20490;-66
2024/04/21 07:31:17;;;;;;;3.80;3.23;;;6.70;99.90;;;;;;5346038;26;20622;-66
2024/04/21 07:33:47;;;;;;;3.10;2.80;;;6.70;99.90;;;;;;5337791;26;20879;-66
2024/04/21 07:36:14;;;;;;;2.83;2.53;;;6.80;99.90;;;;;;5346191;26;21077;-66
2024/04/21 07:38:47;;;;;;;4.10;2.20;;;6.80;99.90;;;;;;5343631;26;21025;-66
2024/04/21 07:41:14;;;;;;;2.70;2.50;;;6.80;99.90;;;;;;5350442;26;20571;-66
2024/04/21 07:43:44;;;;;;;2.63;2.43;;;6.80;99.90;;;;;;5326123;26;20541;-67
2024/04/21 07:46:11;;;;;;;2.93;2.47;;;6.80;99.90;;;;;;5344803;26;20490;-66
2024/04/21 07:48:41;;;;;;;2.43;2.23;;;6.80;99.90;;;;;;5342045;26;20521;-66
2024/04/21 07:51:08;;;;;;;3.10;2.80;;;6.80;99.90;;;;;;5340950;26;20496;-65
2024/04/21 07:53:38;;;;;;;2.47;2.27;;;6.90;99.90;;;;;;5336313;26;20511;-65
2024/04/21 07:56:08;;;;;;;2.73;2.53;;;7.00;99.90;;;;;;5338106;26;20492;-66
2024/04/21 07:58:38;;;;;;;3.70;2.37;;;7.10;99.90;;;;;;5343705;26;21131;-66
2024/04/21 08:01:05;;;;;;;2.20;2.00;;;7.20;99.90;;;;;;5344360;26;20480;-65
2024/04/21 08:03:35;;;;;;;2.40;2.20;;;7.20;99.90;;;;;;5341703;26;21220;-66
2024/04/21 08:06:03;;;;;;;2.20;2.00;;;7.30;99.90;;;;;;5337414;26;20498;-65
2024/04/21 08:08:33;;;;;;;2.63;2.30;;;7.30;99.90;;;;;;5341527;26;20489;-66
2024/04/21 08:11:01;;;;;;;2.20;2.00;;;7.40;99.90;;;;;;5342683;26;20556;-67
2024/04/21 08:13:36;;;;;;;3.00;2.03;;;7.50;99.90;;;;;;5344239;26;20472;-66
2024/04/21 08:16:04;;;;;;;2.50;2.30;;;7.60;99.90;;;;;;5340067;26;21048;-65
2024/04/21 08:18:34;;;;;;;3.80;2.03;;;7.60;99.90;;;;;;5345632;26;20586;-65
2024/04/21 08:21:01;;;;;;;2.40;1.83;;;7.70;99.90;;;;;;5343064;26;20960;-65
2024/04/21 08:23:31;;;;;;;2.43;2.23;;;7.80;99.90;;;;;;5333268;26;20481;-66
2024/04/21 08:26:00;;;;;;;2.60;2.40;;;7.90;99.90;;;;;;5346880;26;20536;-65
2024/04/21 08:28:30;;;;;;;2.30;2.10;;;7.90;99.90;;;;;;5348725;26;20485;-65
2024/04/21 08:31:00;;;;;;;3.00;1.97;;;7.90;99.90;;;;;;5337286;26;20553;-66
2024/04/21 08:33:30;;;;;;;3.40;2.23;;;7.90;99.90;;;;;;5345135;26;20569;-65
2024/04/21 08:35:58;;;;;;;2.97;2.00;;;8.00;99.90;;;;;;5355801;26;20579;-65
2024/04/21 08:38:30;;;;;;;2.90;2.10;;;8.00;99.90;;;;;;5346666;26;20477;-66
2024/04/21 08:41:06;;;;;;;2.10;1.90;;;8.10;99.90;;;;;;5343868;26;20604;-65
2024/04/21 08:43:37;;;;;;;2.30;2.10;;;8.10;99.90;;;;;;5346601;26;20519;-66
2024/04/21 08:46:09;;;;;;;3.17;2.13;;;8.20;99.90;;;;;;5353746;26;20497;-65
2024/04/21 08:48:39;;;;;;;3.30;2.13;;;8.30;99.90;;;;;;5354916;26;21057;-66
2024/04/21 08:51:07;;;;;;;2.57;2.03;;;8.30;99.90;;;;;;5355153;26;21018;-66
2024/04/21 08:53:37;;;;;;;2.43;2.23;;;8.40;99.90;;;;;;5343424;26;20532;-66
2024/04/21 08:56:13;;;;;;;2.93;2.63;;;8.50;99.90;;;;;;5353019;26;20492;-64
2024/04/21 08:58:44;;;;;;;2.23;2.10;;;8.50;98.40;;;;;;5345465;26;20577;-63
2024/04/21 09:01:17;;;;;;;2.07;1.87;;;8.60;99.90;;;;;;5354013;26;20544;-64
2024/04/21 09:03:49;;;;;;;1.93;1.70;;;8.70;99.90;;;;;;5352202;26;20502;-66
2024/04/21 09:06:22;;;;;;;3.23;2.17;;;8.80;99.90;;;;;;5355697;26;20541;-64
2024/04/21 09:08:52;;;;;;;2.60;2.10;;;9.00;99.90;;;;;;5352798;26;20528;-64
2024/04/21 09:11:19;;;;;;;2.00;1.80;;;9.00;99.90;;;;;;5350280;26;20853;-64
2024/04/21 09:13:49;;;;;;;2.67;2.47;;;9.10;99.90;;;;;;5346515;26;21023;-64
2024/04/21 09:16:19;;;;;;;1.90;1.80;;;9.10;95.20;;;;;;5356364;26;20553;-64
2024/04/21 09:18:49;;;;;;;2.20;2.00;;;9.10;98.30;;;;;;5356979;26;20487;-64
2024/04/21 09:21:17;;;;;;;3.67;2.20;;;9.20;97.20;;;;;;5357138;26;21039;-64
2024/04/21 09:23:49;;;;;;;2.70;2.50;;;9.20;96.10;;;;;;5352749;26;20546;-64
2024/04/21 09:26:18;;;;;;;3.20;2.00;;;9.20;95.20;;;;;;5342652;26;21027;-65
2024/04/21 09:28:51;;;;;;;2.53;2.20;;;9.20;96.00;;;;;;5350529;26;20773;-65
2024/04/21 09:31:21;;;;;;;2.43;2.23;;;9.20;94.90;;;;;;5350972;26;20487;-66
2024/04/21 09:33:51;;;;;;;2.43;1.67;;;9.30;97.20;;;;;;5354326;26;20755;-66
2024/04/21 09:36:19;;;;;;;2.00;1.90;;;9.40;96.50;;;;;;5355259;26;21092;-64
2024/04/21 09:38:50;;;;;;;2.50;2.30;;;9.40;93.00;;;;;;5354675;26;20472;-64
2024/04/21 09:41:18;;;;;;;2.10;1.90;;;9.50;96.10;;;;;;5351334;26;21077;-64
2024/04/21 09:43:49;;;;;;;2.03;1.93;;;9.60;98.90;;;;;;5357063;26;21084;-64
2024/04/21 09:46:19;;;;;;;3.43;2.30;;;9.50;92.90;;;;;;5355950;26;20481;-64
2024/04/21 09:48:52;;;;;;;2.17;2.00;;;9.70;94.50;;;;;;5345243;26;20481;-64
2024/04/21 09:51:20;;;;;;;2.30;2.10;;;9.60;90.60;;;;;;5356132;26;20606;-64
2024/04/21 09:53:51;;;;;;;2.30;2.10;;;9.60;92.70;;;;;;5355927;26;20669;-64
2024/04/21 09:56:20;;;;;;;2.23;2.13;;;9.70;86.60;;;;;;5353813;26;20485;-64
2024/04/21 09:58:51;;;;;;;2.10;1.83;;;9.80;80.30;;;;;;5349743;26;20536;-64
2024/04/21 10:01:26;;;;;;;2.10;2.00;;;9.90;86.30;;;;;;5349451;26;20472;-64
2024/04/21 10:04:01;;;;;;;2.00;1.90;;;9.90;85.30;;;;;;5345308;26;20487;-63
2024/04/21 10:06:29;;;;;;;2.10;1.93;;;10.00;85.60;;;;;;5344003;26;20487;-64
2024/04/21 10:09:03;;;;;;;2.20;2.00;;;10.00;80.30;;;;;;5341833;26;20488;-64
2024/04/21 10:11:30;;;;;;;2.40;2.20;;;10.10;72.50;;;;;;5341922;26;20476;-64
2024/04/21 10:14:01;;;;;;;2.30;1.90;;;10.20;73.20;;;;;;5328460;26;20567;-64
2024/04/21 10:16:30;;;;;;;3.00;1.73;;;10.20;61.80;;;;;;5333236;26;21320;-64
2024/04/21 10:19:08;;;;;;;2.60;2.40;;;10.30;59.70;;;;;;5336121;26;20481;-64
2024/04/21 10:21:35;;;;;;;2.33;1.80;;;10.30;55.50;;;;;;5325696;26;20545;-64
2024/04/21 10:24:06;;;;;;;3.10;2.80;;;10.30;58.80;;;;;;5341545;26;20474;-64
2024/04/21 10:26:34;;;;;;;2.17;2.03;;;10.20;51.90;;;;;;5342064;26;20479;-64
2024/04/21 10:29:13;;;;;;;2.23;2.03;;;10.20;59.70;;;;;;5343225;26;21320;-64
2024/04/21 10:31:41;;;;;;;2.60;2.33;;;10.30;61.80;;;;;;5339084;26;21066;-65
2024/04/21 10:34:14;;;;;;;2.10;1.90;;;10.40;54.80;;;;;;5332685;26;20519;-64
2024/04/21 10:36:43;;;;;;;2.70;2.23;;;10.40;49.70;;;;;;5340704;26;20484;-64
2024/04/21 10:39:13;;;;;;;1.97;1.87;;;10.20;49.50;;;;;;5342969;26;20489;-64
2024/04/21 10:41:45;;;;;;;2.33;2.20;;;10.30;52.10;;;;;;5344870;26;20480;-64
2024/04/21 10:44:15;;;;;;;2.27;2.17;;;10.40;59.20;;;;;;5343838;26;20884;-65
2024/04/21 10:46:43;;;;;;;2.57;2.37;;;10.60;62.80;;;;;;5338421;26;20552;-67
2024/04/21 10:49:16;;;;;;;2.60;2.40;;;10.70;60.70;;;;;;5346958;26;20550;-67
2024/04/21 10:51:43;;;;;;;3.47;1.90;;;10.90;57.90;;;;;;5348759;26;20492;-64
2024/04/21 10:54:13;;;;;;;2.00;1.90;;;10.90;58.40;;;;;;5347660;26;21053;-64
2024/04/21 10:56:40;;;;;;;1.80;1.70;;;11.10;65.50;;;;;;5345493;26;20540;-63
2024/04/21 10:59:10;;;;;;;1.93;1.70;;;11.30;59.90;;;;;;5355223;26;20469;-64
2024/04/21 11:01:37;;;;;;;2.80;2.50;;;11.30;53.20;;;;;;5348170;26;20488;-63
2024/04/21 11:04:07;;;;;;;2.07;1.90;;;11.20;52.40;;;;;;5350845;26;20497;-64
2024/04/21 11:06:38;;;;;;;2.13;2.00;;;11.20;60.10;;;;;;5352175;26;20558;-64
2024/04/21 11:09:12;;;;;;;2.00;1.90;;;11.20;58.40;;;;;;5340454;26;20497;-63
2024/04/21 11:11:39;;;;;;;2.40;2.20;;;11.20;58.00;;;;;;5345200;26;20492;-63
2024/04/21 11:14:09;;;;;;;4.40;4.00;;;11.20;59.40;;;;;;5352493;26;20502;-64
2024/04/21 11:16:37;;;;;;;3.63;3.03;;;11.20;62.50;;;;;;5346943;26;20483;-63
2024/04/21 11:19:08;;;;;;;2.43;2.17;;;11.30;60.60;;;;;;5347446;26;20489;-63
2024/04/21 11:21:38;;;;;;;2.20;2.00;;;11.30;54.10;;;;;;5350151;26;20488;-67
2024/04/21 11:24:09;;;;;;;2.20;2.00;;;11.40;55.50;;;;;;5352647;26;20829;-68
2024/04/21 11:26:36;;;;;;;2.40;2.20;;;11.20;55.20;;;;;;5349753;26;20490;-69
2024/04/21 11:29:07;;;;;;;1.97;1.87;;;11.10;61.60;;;;;;5347589;26;20477;-66
2024/04/21 11:31:35;;;;;;;2.17;1.97;;;11.10;57.20;;;;;;5351985;26;20538;-66
2024/04/21 11:34:05;;;;;;;2.30;2.10;;;11.10;55.70;;;;;;5351930;26;20533;-66
2024/04/21 11:36:34;;;;;;;1.97;1.77;;;11.10;57.90;;;;;;5351434;26;20480;-66
2024/04/21 11:39:06;;;;;;;1.90;1.70;;;11.20;53.10;;;;;;5351701;26;20558;-67
2024/04/21 11:41:34;;;;;;;2.10;2.00;;;11.20;55.30;;;;;;5349086;26;20486;-67
2024/04/21 11:44:04;;;;;;;2.67;1.87;;;11.20;57.40;;;;;;5352805;26;20476;-66
2024/04/21 11:46:32;;;;;;;2.17;2.00;;;11.20;55.70;;;;;;5353978;26;20493;-66
2024/04/21 11:49:02;;;;;;;1.90;1.80;;;11.20;53.20;;;;;;5351227;26;20489;-66
2024/04/21 11:51:30;;;;;;;2.30;2.10;;;11.10;52.20;;;;;;5352842;26;20601;-66
2024/04/21 11:54:00;;;;;;;3.23;2.30;;;11.10;56.20;;;;;;5353716;26;20529;-66
2024/04/21 11:56:29;;;;;;;2.13;1.93;;;11.10;56.70;;;;;;5354017;26;20470;-65
2024/04/21 11:58:59;;;;;;;2.30;1.80;;;11.00;60.30;;;;;;5352177;26;21038;-68
2024/04/21 12:01:27;;;;;;;1.97;1.87;;;11.00;57.00;;;;;;5333043;26;20686;-64
2024/04/21 12:04:13;;;;;;;2.37;2.00;;;10.90;56.70;;;;;;5329223;26;20544;-62
2024/04/21 12:06:40;;;;;;;1.80;1.70;;;11.00;57.70;;;;;;5339508;26;20548;-64
2024/04/21 12:09:12;;;;;;;2.13;2.03;;;11.00;59.30;;;;;;5342838;26;20552;-63
2024/04/21 12:11:42;;;;;;;1.93;1.83;;;11.00;59.50;;;;;;5339559;26;20516;-63
2024/04/21 12:14:33;;;;;;;2.47;2.27;;;11.00;58.90;;;;;;5339158;26;20584;-64
2024/04/21 12:17:00;;;;;;;2.67;1.70;;;11.10;58.90;;;;;;5338383;26;20485;-63
2024/04/21 12:19:32;;;;;;;2.80;1.93;;;11.20;60.10;;;;;;5330021;26;20482;-62
2024/04/21 12:21:59;;;;;;;2.00;1.90;;;11.10;55.70;;;;;;5329244;26;20755;-64
2024/04/21 12:24:29;;;;;;;2.17;1.97;;;11.10;59.30;;;;;;5335163;26;20473;-63
2024/04/21 12:26:59;;;;;;;1.80;1.70;;;11.30;61.70;;;;;;5331540;26;20476;-63
2024/04/21 12:29:29;;;;;;;2.20;1.90;;;11.30;57.20;;;;;;5328355;26;22682;-64
2024/04/21 12:31:57;;;;;;;2.40;2.20;;;11.40;63.30;;;;;;5334652;26;20482;-64
2024/04/21 12:34:27;;;;;;;2.50;2.30;;;11.30;56.10;;;;;;5336757;26;21197;-64
2024/04/21 12:36:54;;;;;;;1.90;1.80;;;11.20;55.20;;;;;;5329582;26;21095;-64
2024/04/21 12:39:26;;;;;;;1.87;1.77;;;11.10;58.50;;;;;;5333642;26;20595;-63
2024/04/21 12:41:53;;;;;;;2.10;1.93;;;11.20;60.30;;;;;;5333166;26;20484;-68
2024/04/21 12:44:26;;;;;;;1.87;1.77;;;11.30;57.10;;;;;;5327381;26;20619;-67
2024/04/21 12:46:53;;;;;;;1.80;1.70;;;11.20;56.90;;;;;;5330840;26;20493;-67
2024/04/21 12:49:24;;;;;;;2.83;2.63;;;11.20;54.10;;;;;;5334215;26;20480;-67
2024/04/21 12:51:51;;;;;;;2.23;2.10;;;11.30;59.60;;;;;;5334111;26;21410;-67
2024/04/21 12:54:22;;;;;;;2.10;1.90;;;11.50;61.20;;;;;;5333199;26;20482;-67
2024/04/21 12:56:50;;;;;;;1.63;1.53;;;11.50;56.20;;;;;;5339220;26;20535;-64
2024/04/21 12:59:20;;;;;;;1.80;1.70;;;11.70;53.40;;;;;;5330036;26;20537;-62
2024/04/21 13:01:50;;;;;;;1.77;1.67;;;11.80;52.70;;;;;;5342848;26;20504;-63
2024/04/21 13:04:19;;;;;;;1.70;1.60;;;11.80;52.70;;;;;;5342668;26;21188;-63
2024/04/21 13:06:48;;;;;;;2.07;1.80;;;11.70;57.30;;;;;;5344969;26;20493;-63